createdAt,value
2023-02-04T00:06:03.690Z,1.15
2023-02-04T00:13:38.832Z,1.42
2023-02-04T00:21:12.960Z,1.02
2023-02-04T00:28:48.359Z,1.35
2023-02-04T00:36:22.400Z,1.40
2023-02-04T00:43:57.767Z,1.20
2023-02-04T00:51:31.615Z,1.00
2023-02-04T00:59:06.798Z,0.90
2023-02-04T01:06:40.561Z,0.90
2023-02-04T01:14:15.812Z,1.00
2023-02-04T01:21:50.219Z,1.10
2023-02-04T01:36:59.148Z,0.60
2023-02-04T01:44:34.360Z,0.98
2023-02-04T01:52:08.612Z,0.70
2023-02-04T01:59:44.759Z,0.70
2023-02-04T02:07:18.517Z,0.98
2023-02-04T02:14:53.709Z,0.60
2023-02-04T02:22:31.471Z,0.50
2023-02-04T02:30:09.623Z,0.50
2023-02-04T02:37:43.700Z,0.82
2023-02-04T02:45:23.928Z,0.43
2023-02-04T02:52:58.139Z,0.38
2023-02-04T03:00:33.576Z,0.70
2023-02-04T03:08:09.039Z,0.93
2023-02-04T03:15:45.794Z,1.30
2023-02-04T03:23:20.824Z,1.02
2023-02-04T03:30:56.751Z,0.75
2023-02-04T03:38:30.871Z,0.63
2023-02-04T03:46:06.211Z,0.88
2023-02-04T03:53:39.975Z,0.85
2023-02-04T04:01:15.129Z,0.60
2023-02-04T04:08:49.014Z,0.70
2023-02-04T04:16:24.523Z,0.40
2023-02-04T04:23:58.785Z,0.50
2023-02-04T04:39:07.685Z,0.68
2023-02-04T04:46:42.932Z,0.57
2023-02-04T04:54:16.906Z,0.60
2023-02-04T05:01:52.064Z,0.40
2023-02-04T05:09:26.081Z,0.60
2023-02-04T05:17:01.234Z,0.63
2023-02-04T05:24:35.018Z,0.95
2023-02-04T05:32:10.175Z,0.70
2023-02-04T05:39:43.999Z,0.65
2023-02-04T05:47:20.489Z,0.98
2023-02-04T05:54:54.380Z,0.82
2023-02-04T06:02:29.563Z,0.55
2023-02-04T06:10:03.455Z,0.55
2023-02-04T06:17:38.614Z,0.82
2023-02-04T06:25:12.442Z,0.77
2023-02-04T06:32:47.861Z,0.80
2023-02-04T06:40:21.958Z,0.80
2023-02-04T07:03:07.604Z,0.75
2023-02-04T07:10:42.073Z,0.47
2023-02-04T07:18:17.979Z,0.70
2023-02-04T07:25:54.274Z,0.93
2023-02-04T07:33:29.627Z,0.80
2023-02-04T07:41:03.469Z,0.98
2023-02-04T07:48:38.648Z,1.00
2023-02-04T07:56:12.552Z,3.22
2023-02-04T08:03:47.711Z,1.52
2023-02-04T08:11:21.481Z,1.15
2023-02-04T08:18:56.895Z,1.13
2023-02-04T08:26:31.117Z,2.92
2023-02-04T08:41:39.968Z,1.10
2023-02-04T08:49:15.182Z,1.73
2023-02-04T08:56:50.162Z,1.15
2023-02-04T09:04:25.740Z,0.98
2023-02-04T09:11:59.520Z,0.73
2023-02-04T09:19:34.720Z,1.13
2023-02-04T09:27:08.624Z,0.70
2023-02-04T09:34:43.959Z,0.75
2023-02-04T09:42:18.275Z,0.77
2023-02-04T09:49:53.884Z,0.90
2023-02-04T09:57:30.367Z,0.52
2023-02-04T10:05:06.005Z,0.65
2023-02-04T10:12:39.923Z,0.70
2023-02-04T10:20:16.066Z,1.10
2023-02-04T10:27:52.046Z,1.00
2023-02-04T10:35:27.854Z,0.90
2023-02-04T10:43:10.566Z,0.57
2023-02-04T10:50:47.629Z,0.88
2023-02-04T10:58:27.824Z,1.75
2023-02-04T11:06:04.252Z,0.70
2023-02-04T11:13:43.433Z,0.52
2023-02-04T11:21:26.971Z,0.60
2023-02-04T11:29:27.642Z,0.57
2023-02-04T11:37:17.159Z,0.90
2023-02-04T11:44:53.752Z,0.40
2023-02-04T11:52:28.991Z,0.20
2023-02-04T12:00:03.624Z,0.25
2023-02-04T12:07:40.345Z,0.22
2023-02-04T12:15:24.249Z,0.30
2023-02-04T12:22:59.356Z,0.50
2023-02-04T12:30:33.495Z,0.32
2023-02-04T12:38:08.825Z,0.60
2023-02-04T12:45:45.821Z,0.57
2023-02-04T12:53:21.201Z,0.30
2023-02-04T13:00:55.235Z,0.30
2023-02-04T13:08:30.768Z,0.30
2023-02-04T13:16:04.749Z,0.20
2023-02-04T13:23:39.822Z,0.47
2023-02-04T13:31:14.684Z,0.40
2023-02-04T13:38:49.771Z,0.43
2023-02-04T13:46:23.579Z,0.30
2023-02-04T13:54:00.314Z,0.50
2023-02-04T14:01:34.332Z,0.30
2023-02-04T14:09:09.872Z,0.40
2023-02-04T14:16:43.672Z,0.40
2023-02-04T14:24:19.053Z,0.30
2023-02-04T14:31:53.434Z,0.40
2023-02-04T14:39:28.685Z,0.10
2023-02-04T14:47:02.494Z,0.32
2023-02-04T14:54:37.650Z,0.40
2023-02-04T15:02:15.289Z,0.47
2023-02-04T15:09:50.834Z,0.30
2023-02-04T15:17:24.865Z,0.40
2023-02-04T15:25:00.048Z,0.80
2023-02-04T15:32:33.910Z,0.40
2023-02-04T15:40:10.565Z,0.30
2023-02-04T15:47:44.382Z,0.40
2023-02-04T15:55:20.121Z,0.37
2023-02-04T16:02:54.015Z,0.40
2023-02-04T16:10:30.050Z,0.30
2023-02-04T16:18:03.866Z,0.47
2023-02-04T16:25:39.305Z,0.40
2023-02-04T16:33:13.536Z,0.22
2023-02-04T16:40:48.865Z,0.30
2023-02-04T16:48:22.851Z,0.50
2023-02-04T16:55:58.041Z,0.80
2023-02-04T17:03:32.065Z,0.50
2023-02-04T17:11:24.965Z,0.88
2023-02-04T17:18:58.865Z,0.57
2023-02-04T17:26:38.162Z,0.52
2023-02-04T17:34:13.558Z,0.80
2023-02-04T17:41:48.933Z,0.77
2023-02-04T17:49:22.679Z,1.08
2023-02-04T17:57:02.620Z,1.17
2023-02-04T18:04:36.348Z,1.92
2023-02-04T18:12:16.307Z,1.80
2023-02-04T18:19:50.123Z,1.45
2023-02-04T18:27:32.221Z,1.73
2023-02-04T18:35:27.038Z,1.40
2023-02-04T18:43:19.377Z,1.38
2023-02-04T18:50:54.636Z,2.22
2023-02-04T18:58:35.227Z,2.25
2023-02-04T19:06:28.837Z,3.83
2023-02-04T19:14:16.825Z,3.70
2023-02-04T19:21:51.510Z,2.40
2023-02-04T19:29:39.286Z,2.33
2023-02-04T19:37:23.226Z,2.78
2023-02-04T19:44:59.393Z,5.23
2023-02-04T19:52:38.224Z,5.93
2023-02-04T20:00:40.172Z,3.88
2023-02-04T20:08:41.643Z,2.40
2023-02-04T20:16:39.448Z,2.35
2023-02-04T20:24:18.369Z,2.83
2023-02-04T20:31:55.603Z,2.17
2023-02-04T20:39:34.780Z,1.30
2023-02-04T20:47:17.596Z,1.60
2023-02-04T20:54:51.655Z,1.60
2023-02-04T21:10:04.408Z,6.43
2023-02-04T21:17:39.959Z,1.98
2023-02-04T21:25:14.260Z,2.90
2023-02-04T21:32:49.434Z,1.70
2023-02-04T21:40:23.714Z,2.33
2023-02-04T21:47:58.894Z,2.35
2023-02-04T21:55:33.066Z,2.00
2023-02-04T22:03:13.039Z,2.00
2023-02-04T22:10:47.051Z,1.83
2023-02-04T22:25:56.372Z,2.20
2023-02-04T22:33:31.607Z,2.50
2023-02-04T22:41:05.544Z,2.17
2023-02-04T22:48:40.693Z,2.28
2023-02-04T22:56:14.641Z,2.33
2023-02-04T23:03:50.940Z,2.05
2023-02-04T23:11:24.933Z,2.35
2023-02-04T23:26:34.653Z,2.10
2023-02-04T23:49:18.249Z,3.38
2023-02-04T23:56:52.103Z,2.88
